Wellborn, Texas
Current Conditions -  °F | °C
As of 8:53 PM on Wednesday 26 Nov 2014 (Local Time) from KCLL Reporting Station
Clear Clear  
Wind Chill: 53°   Ceiling: Unl
Heat Index: 53°   Visibility: 10mi
Dew Point: 35°   Wind: 6mph
Humidity: 50%   Direction: 360°N
Pressure: 30.29"   Gusts: NA
Location:  30.54°N, 96.3°W
Report Text: KCLL 270253Z 36005KT 10SM CLR 12/02 A3029 RMK AO2 SLP255 T01170017 51026
Loading
Personal Weather Stations






























Interactive Weather Map New forecast layout! Learn more

10-Day Weather Forecast

Advertisements
Track Severe Weather on mobile